createdAt,value
2022-10-03T00:01:38.144Z,8.77
2022-10-03T00:04:24.768Z,11.67
2022-10-03T00:07:05.714Z,14.55
2022-10-03T00:09:52.710Z,12.38
2022-10-03T00:12:41.794Z,13.60
2022-10-03T00:15:14.102Z,11.45
2022-10-03T00:17:50.415Z,10.53
2022-10-03T00:20:37.711Z,11.85
2022-10-03T00:23:11.327Z,11.68
2022-10-03T00:25:46.634Z,14.45
2022-10-03T00:28:24.523Z,12.27
2022-10-03T00:31:13.463Z,9.70
2022-10-03T00:33:53.786Z,16.90
2022-10-03T00:36:31.367Z,9.95
2022-10-03T00:39:08.534Z,5.95
2022-10-03T00:42:10.713Z,11.38
2022-10-03T00:45:12.828Z,10.63
2022-10-03T00:48:01.977Z,10.77
2022-10-03T00:50:52.442Z,10.32
2022-10-03T00:53:44.255Z,7.88
2022-10-03T00:56:33.633Z,12.57
2022-10-03T00:59:22.224Z,12.33
2022-10-03T01:01:50.252Z,19.83
2022-10-03T01:04:44.189Z,8.18
2022-10-03T01:07:23.961Z,13.55
2022-10-03T01:10:06.949Z,13.93
2022-10-03T01:12:57.331Z,10.07
2022-10-03T01:15:32.949Z,9.45
2022-10-03T01:18:15.049Z,15.07
2022-10-03T01:20:52.868Z,9.15
2022-10-03T01:23:58.833Z,10.93
2022-10-03T01:26:53.050Z,9.40
2022-10-03T01:29:26.423Z,10.23
2022-10-03T01:31:57.328Z,11.55
2022-10-03T01:34:31.607Z,13.35
2022-10-03T01:37:09.345Z,11.23
2022-10-03T01:39:44.092Z,14.93
2022-10-03T01:42:16.111Z,10.27
2022-10-03T01:45:00.539Z,15.65
2022-10-03T01:47:39.266Z,11.80
2022-10-03T01:50:14.551Z,8.27
2022-10-03T01:52:49.206Z,10.17
2022-10-03T01:55:25.957Z,11.45
2022-10-03T01:57:58.744Z,12.02
2022-10-03T02:00:34.549Z,11.25
2022-10-03T02:03:10.925Z,12.93
2022-10-03T02:05:47.739Z,8.40
2022-10-03T02:08:26.476Z,9.55
2022-10-03T02:11:00.302Z,10.23
2022-10-03T02:13:38.551Z,12.05
2022-10-03T02:16:14.189Z,12.20
2022-10-03T02:18:47.394Z,16.70
2022-10-03T02:21:18.803Z,12.77
2022-10-03T02:23:46.331Z,9.90
2022-10-03T02:26:47.762Z,11.73
2022-10-03T02:29:51.411Z,14.68
2022-10-03T02:32:52.337Z,8.50
2022-10-03T02:35:48.753Z,8.20
2022-10-03T02:38:31.627Z,8.55
2022-10-03T02:41:24.861Z,13.45
2022-10-03T02:44:19.873Z,9.57
2022-10-03T02:47:30.848Z,6.67
2022-10-03T02:50:36.004Z,8.07
2022-10-03T02:53:37.097Z,10.43
2022-10-03T02:56:29.411Z,9.88
2022-10-03T02:59:18.748Z,10.65
2022-10-03T03:02:16.912Z,11.03
2022-10-03T03:05:18.082Z,13.68
2022-10-03T03:08:18.075Z,13.20
2022-10-03T03:11:16.286Z,8.88
2022-10-03T03:14:05.462Z,13.80
2022-10-03T03:16:53.100Z,11.93
2022-10-03T03:19:42.195Z,11.23
2022-10-03T03:22:21.030Z,6.93
2022-10-03T03:25:00.692Z,11.32
2022-10-03T03:27:40.353Z,11.50
2022-10-03T03:30:12.481Z,10.07
2022-10-03T03:32:58.815Z,7.95
2022-10-03T03:35:36.625Z,9.32
2022-10-03T03:38:20.270Z,9.50
2022-10-03T03:41:12.491Z,8.93
2022-10-03T03:44:06.817Z,3.57
2022-10-03T03:46:53.705Z,11.50
2022-10-03T03:49:53.701Z,8.70
2022-10-03T03:52:39.877Z,6.00
2022-10-03T03:55:22.321Z,11.60
2022-10-03T03:58:06.229Z,12.50
2022-10-03T04:00:49.458Z,5.20
2022-10-03T04:03:30.720Z,8.73
2022-10-03T04:06:13.291Z,6.70
2022-10-03T04:09:00.266Z,12.40
2022-10-03T04:11:38.964Z,6.40
2022-10-03T04:14:40.524Z,9.45
2022-10-03T04:17:30.143Z,8.20
2022-10-03T04:20:08.468Z,7.15
2022-10-03T04:23:00.442Z,6.90
2022-10-03T04:25:46.051Z,9.27
2022-10-03T04:28:47.560Z,7.95
2022-10-03T04:31:30.287Z,7.15
2022-10-03T04:34:12.801Z,8.30
2022-10-03T04:36:58.207Z,7.70
2022-10-03T04:39:35.239Z,5.20
2022-10-03T04:42:13.099Z,8.60
2022-10-03T04:44:56.554Z,5.55
2022-10-03T04:47:28.601Z,8.13
2022-10-03T04:50:02.690Z,9.13
2022-10-03T04:52:36.660Z,6.07
2022-10-03T04:55:15.755Z,6.95
2022-10-03T04:57:48.904Z,6.63
2022-10-03T05:00:23.617Z,13.07
2022-10-03T05:02:57.964Z,9.45
2022-10-03T05:05:44.868Z,7.57
2022-10-03T05:08:36.500Z,8.20
2022-10-03T05:11:36.656Z,7.97
2022-10-03T05:14:12.014Z,7.60
2022-10-03T05:16:42.988Z,9.75
2022-10-03T05:19:37.719Z,9.43
2022-10-03T05:22:14.835Z,8.45
2022-10-03T05:24:50.182Z,11.32
2022-10-03T05:27:26.058Z,7.40
2022-10-03T05:30:02.931Z,10.07
2022-10-03T05:32:39.280Z,7.97
2022-10-03T05:35:27.357Z,10.13
2022-10-03T05:38:38.786Z,13.63
2022-10-03T05:41:11.710Z,9.85
2022-10-03T05:43:54.632Z,12.90
2022-10-03T05:46:35.860Z,11.30
2022-10-03T05:49:19.913Z,9.95
2022-10-03T05:52:13.875Z,9.10
2022-10-03T05:55:12.407Z,11.30
2022-10-03T05:58:17.747Z,11.75
2022-10-03T06:01:04.696Z,10.07
2022-10-03T06:03:55.539Z,14.05
2022-10-03T06:06:33.239Z,13.57
2022-10-03T06:09:29.656Z,13.05
2022-10-03T06:12:07.296Z,15.32
2022-10-03T06:14:55.657Z,11.17
2022-10-03T06:17:50.208Z,11.63
2022-10-03T06:20:46.070Z,10.55
2022-10-03T06:23:37.373Z,9.55
2022-10-03T06:26:28.903Z,13.95
2022-10-03T06:29:37.574Z,14.07
2022-10-03T06:32:43.558Z,17.85
2022-10-03T06:35:58.539Z,14.40
2022-10-03T06:38:59.305Z,19.02
2022-10-03T06:41:59.084Z,18.80
2022-10-03T06:44:49.068Z,15.57
2022-10-03T06:47:27.141Z,13.48
2022-10-03T06:50:34.605Z,10.10
2022-10-03T06:53:16.072Z,15.98
2022-10-03T06:55:55.159Z,14.23
2022-10-03T06:58:43.499Z,18.13
2022-10-03T07:01:47.332Z,11.48
2022-10-03T07:04:55.545Z,19.17
2022-10-03T07:07:55.074Z,13.57
2022-10-03T07:10:40.794Z,12.52
2022-10-03T07:13:37.827Z,15.43
2022-10-03T07:16:29.377Z,14.00
2022-10-03T07:19:17.409Z,17.05
2022-10-03T07:22:12.039Z,20.35
2022-10-03T07:25:21.854Z,9.43
2022-10-03T07:28:03.032Z,11.17
2022-10-03T07:30:47.295Z,15.95
2022-10-03T07:33:38.965Z,12.52
2022-10-03T07:36:31.509Z,11.38
2022-10-03T07:39:27.270Z,12.88
2022-10-03T07:42:12.589Z,12.80
2022-10-03T07:45:08.015Z,9.60
2022-10-03T07:48:07.972Z,14.63
2022-10-03T07:50:49.834Z,12.18
2022-10-03T07:53:37.870Z,10.52
2022-10-03T07:56:20.019Z,9.97
2022-10-03T07:59:14.852Z,12.77
2022-10-03T08:01:57.803Z,13.75
2022-10-03T08:04:51.393Z,10.73
2022-10-03T08:07:32.370Z,13.90
2022-10-03T08:10:11.366Z,10.10
2022-10-03T08:13:04.835Z,9.55
2022-10-03T08:15:53.350Z,11.57
2022-10-03T08:18:37.350Z,16.80
2022-10-03T08:21:08.081Z,11.50
2022-10-03T08:24:05.445Z,6.47
2022-10-03T08:26:44.864Z,7.88
2022-10-03T08:29:31.899Z,9.95
2022-10-03T08:32:33.845Z,14.82
2022-10-03T08:35:20.080Z,9.77
2022-10-03T08:38:30.482Z,10.53
2022-10-03T08:41:23.874Z,11.10
2022-10-03T08:44:30.480Z,8.60
2022-10-03T08:47:34.796Z,12.20
2022-10-03T08:50:32.174Z,6.75
2022-10-03T08:53:34.251Z,11.57
2022-10-03T08:56:06.292Z,9.32
2022-10-03T08:59:09.180Z,13.63
2022-10-03T09:02:02.843Z,6.80
2022-10-03T09:05:13.857Z,13.13
2022-10-03T09:08:09.494Z,11.53
2022-10-03T09:10:52.132Z,10.50
2022-10-03T09:13:49.593Z,14.18
2022-10-03T09:16:35.611Z,14.05
2022-10-03T09:19:29.847Z,11.77
2022-10-03T09:22:31.898Z,11.33
2022-10-03T09:25:29.108Z,12.50
2022-10-03T09:28:36.403Z,8.52
2022-10-03T09:31:19.089Z,11.02
2022-10-03T09:34:12.829Z,9.63
2022-10-03T09:37:14.721Z,9.67
2022-10-03T09:40:29.071Z,7.85
2022-10-03T09:43:24.042Z,8.82
2022-10-03T09:46:37.066Z,10.38
2022-10-03T09:49:41.422Z,6.97
2022-10-03T09:52:31.843Z,9.00
2022-10-03T09:55:17.691Z,7.57
2022-10-03T09:58:11.097Z,11.90
2022-10-03T10:00:57.799Z,8.43
2022-10-03T10:04:02.164Z,10.10
2022-10-03T10:06:39.467Z,13.83
2022-10-03T10:09:34.211Z,12.30
2022-10-03T10:12:15.136Z,8.93
2022-10-03T10:15:14.179Z,6.75
2022-10-03T10:18:13.601Z,6.65
2022-10-03T10:21:22.961Z,13.43
2022-10-03T10:24:01.157Z,10.52
2022-10-03T10:27:02.479Z,10.75
2022-10-03T10:29:40.088Z,7.75
2022-10-03T10:32:38.039Z,7.68
2022-10-03T10:35:43.823Z,8.03
2022-10-03T10:38:37.279Z,5.97
2022-10-03T10:41:57.417Z,7.07
2022-10-03T10:45:05.317Z,7.60
2022-10-03T10:48:09.988Z,4.45
2022-10-03T10:51:20.674Z,5.70
2022-10-03T10:54:23.321Z,5.75
2022-10-03T10:57:04.636Z,7.85
2022-10-03T11:00:04.709Z,9.25
2022-10-03T11:03:13.069Z,10.23
2022-10-03T11:06:28.172Z,6.73
2022-10-03T11:09:41.751Z,5.53
2022-10-03T11:13:08.275Z,4.10
2022-10-03T11:16:08.660Z,8.10
2022-10-03T11:19:07.906Z,8.15
2022-10-03T11:22:10.738Z,6.20
2022-10-03T11:25:24.731Z,9.23
2022-10-03T11:28:31.150Z,7.78
2022-10-03T11:31:37.038Z,6.68
2022-10-03T11:34:39.328Z,3.13
2022-10-03T11:37:09.557Z,8.03
2022-10-03T11:39:45.610Z,3.75
2022-10-03T11:42:24.624Z,5.88
2022-10-03T11:44:58.308Z,7.05
2022-10-03T11:47:45.131Z,3.80
2022-10-03T11:50:32.690Z,7.50
2022-10-03T11:53:15.770Z,7.35
2022-10-03T11:55:47.479Z,6.55
2022-10-03T11:58:30.425Z,5.78
2022-10-03T12:01:12.476Z,5.20
2022-10-03T12:03:47.232Z,4.70
2022-10-03T12:06:24.513Z,4.35
2022-10-03T12:09:07.979Z,7.68
2022-10-03T12:11:42.785Z,4.35
2022-10-03T12:14:29.585Z,4.38
2022-10-03T12:17:05.613Z,10.80
2022-10-03T12:19:38.391Z,3.80
2022-10-03T12:22:18.240Z,6.90
2022-10-03T12:24:47.752Z,8.45
2022-10-03T12:27:24.068Z,4.30
2022-10-03T12:29:56.990Z,5.53
2022-10-03T12:32:31.688Z,6.32
2022-10-03T12:35:15.085Z,5.70
2022-10-03T12:37:53.254Z,6.68
2022-10-03T12:40:25.271Z,6.38
2022-10-03T12:43:04.271Z,6.40
2022-10-03T12:45:36.745Z,3.67
2022-10-03T12:48:22.978Z,5.38
2022-10-03T12:50:55.687Z,6.82
2022-10-03T12:53:38.388Z,6.75
2022-10-03T12:56:16.734Z,6.03
2022-10-03T12:58:54.368Z,5.00
2022-10-03T13:01:31.464Z,3.92
2022-10-03T13:04:01.863Z,5.53
2022-10-03T13:07:02.249Z,3.33
2022-10-03T13:09:42.159Z,4.73
2022-10-03T13:12:16.214Z,6.07
2022-10-03T13:15:26.467Z,6.70
2022-10-03T13:18:00.679Z,4.95
2022-10-03T13:20:32.283Z,5.72
2022-10-03T13:23:05.992Z,4.70
2022-10-03T13:25:42.444Z,3.08
2022-10-03T13:28:15.820Z,3.30
2022-10-03T13:30:48.875Z,3.53
2022-10-03T13:33:21.175Z,3.78
2022-10-03T13:35:51.221Z,4.47
2022-10-03T13:38:49.926Z,4.60
2022-10-03T13:41:26.292Z,4.00
2022-10-03T13:43:58.973Z,3.60
2022-10-03T13:46:34.483Z,2.58
2022-10-03T13:49:11.632Z,4.90
2022-10-03T13:51:48.977Z,6.72
2022-10-03T13:54:22.212Z,7.18
2022-10-03T13:56:54.753Z,3.65
2022-10-03T13:59:46.984Z,7.10
2022-10-03T14:02:57.476Z,4.17
2022-10-03T14:05:50.302Z,4.38
2022-10-03T14:08:36.693Z,3.92
2022-10-03T14:11:25.219Z,4.80
2022-10-03T14:14:27.695Z,3.22
2022-10-03T14:17:04.686Z,3.53
2022-10-03T14:19:44.425Z,3.30
2022-10-03T14:22:32.490Z,4.10
2022-10-03T14:25:17.784Z,5.10
2022-10-03T14:27:51.028Z,5.70
2022-10-03T14:30:20.522Z,4.87
2022-10-03T14:32:59.423Z,4.60
2022-10-03T14:35:36.673Z,4.80
2022-10-03T14:38:15.060Z,4.43
2022-10-03T14:40:49.080Z,4.68
2022-10-03T14:43:34.041Z,4.37
2022-10-03T14:46:03.252Z,3.55
2022-10-03T14:48:37.845Z,4.72
2022-10-03T14:51:14.729Z,5.15
2022-10-03T14:53:51.171Z,3.08
2022-10-03T14:56:20.563Z,5.53
2022-10-03T14:58:50.419Z,3.55
2022-10-03T15:01:19.838Z,3.40
2022-10-03T15:04:02.034Z,6.70
2022-10-03T15:06:50.193Z,4.57
2022-10-03T15:09:21.658Z,4.93
2022-10-03T15:11:52.964Z,3.28
2022-10-03T15:14:21.794Z,4.22
2022-10-03T15:16:53.260Z,4.90
2022-10-03T15:19:23.991Z,3.97
2022-10-03T15:21:52.857Z,3.80
2022-10-03T15:24:25.718Z,5.18
2022-10-03T15:27:00.787Z,5.40
2022-10-03T15:29:28.969Z,5.57
2022-10-03T15:31:57.104Z,3.63
2022-10-03T15:34:29.830Z,4.87
2022-10-03T15:36:59.961Z,4.85
2022-10-03T15:39:31.824Z,4.65
2022-10-03T15:42:05.308Z,5.75
2022-10-03T15:44:34.463Z,6.03
2022-10-03T15:47:07.774Z,3.10
2022-10-03T15:49:38.711Z,5.18
2022-10-03T15:52:16.193Z,4.95
2022-10-03T15:54:48.503Z,6.38
2022-10-03T15:57:22.364Z,3.35
2022-10-03T15:59:53.154Z,5.93
2022-10-03T16:02:25.697Z,4.15
2022-10-03T16:04:55.452Z,5.55
2022-10-03T16:07:28.493Z,7.68
2022-10-03T16:10:11.902Z,3.55
2022-10-03T16:12:54.257Z,2.77
2022-10-03T16:15:23.597Z,2.33
2022-10-03T16:17:55.003Z,8.65
2022-10-03T16:20:25.237Z,5.22
2022-10-03T16:22:55.316Z,6.65
2022-10-03T16:25:26.556Z,6.20
2022-10-03T16:27:58.221Z,4.53
2022-10-03T16:30:29.824Z,4.85
2022-10-03T16:33:03.557Z,3.47
2022-10-03T16:35:37.567Z,3.67
2022-10-03T16:38:17.173Z,11.50
2022-10-03T16:40:53.690Z,7.78
2022-10-03T16:43:21.217Z,7.13
2022-10-03T16:45:50.453Z,7.97
2022-10-03T16:48:26.752Z,5.40
2022-10-03T16:50:54.363Z,4.47
2022-10-03T16:53:21.908Z,4.45
2022-10-03T16:55:57.857Z,5.05
2022-10-03T16:58:29.560Z,4.85
2022-10-03T17:01:25.352Z,5.40
2022-10-03T17:03:52.356Z,5.60
2022-10-03T17:06:23.456Z,3.70
2022-10-03T17:08:52.995Z,4.18
2022-10-03T17:11:24.249Z,6.57
2022-10-03T17:13:56.104Z,8.00
2022-10-03T17:16:31.617Z,3.23
2022-10-03T17:19:11.448Z,4.43
2022-10-03T17:21:43.217Z,7.97
2022-10-03T17:24:12.841Z,4.55
2022-10-03T17:26:43.675Z,5.00
2022-10-03T17:29:16.341Z,8.20
2022-10-03T17:31:46.784Z,5.90
2022-10-03T17:34:17.218Z,4.00
2022-10-03T17:37:16.356Z,7.50
2022-10-03T17:39:51.135Z,5.25
2022-10-03T17:42:53.792Z,4.33
2022-10-03T17:45:32.654Z,10.30
2022-10-03T17:48:05.258Z,10.80
2022-10-03T17:50:38.386Z,4.68
2022-10-03T17:53:05.240Z,4.38
2022-10-03T17:55:38.829Z,4.60
2022-10-03T17:58:15.271Z,8.23
2022-10-03T18:00:59.762Z,8.05
2022-10-03T18:03:31.323Z,8.13
2022-10-03T18:06:22.787Z,6.28
2022-10-03T18:08:51.996Z,7.37
2022-10-03T18:11:24.201Z,16.00
2022-10-03T18:14:02.017Z,15.57
2022-10-03T18:16:34.698Z,16.20
2022-10-03T18:19:15.533Z,17.42
2022-10-03T18:22:00.781Z,17.13
2022-10-03T18:24:44.206Z,20.33
2022-10-03T18:27:39.231Z,14.50
2022-10-03T18:30:16.869Z,14.85
2022-10-03T18:32:45.222Z,13.70
2022-10-03T18:35:15.524Z,12.27
2022-10-03T18:38:01.753Z,12.20
2022-10-03T18:40:31.436Z,13.82
2022-10-03T18:43:03.673Z,12.43
2022-10-03T18:45:37.981Z,8.43
2022-10-03T18:48:12.363Z,12.53
2022-10-03T18:50:56.604Z,8.35
2022-10-03T18:53:31.995Z,11.93
2022-10-03T18:56:01.885Z,11.13
2022-10-03T18:58:33.684Z,12.82
2022-10-03T19:01:06.199Z,12.80
2022-10-03T19:03:37.152Z,9.45
2022-10-03T19:06:07.372Z,9.35
2022-10-03T19:08:38.784Z,10.15
2022-10-03T19:11:16.419Z,8.70
2022-10-03T19:13:51.789Z,9.90
2022-10-03T19:16:40.427Z,7.95
2022-10-03T19:19:14.288Z,7.13
2022-10-03T19:21:42.437Z,6.35
2022-10-03T19:24:13.305Z,7.35
2022-10-03T19:26:45.607Z,5.87
2022-10-03T19:29:17.607Z,7.60
2022-10-03T19:31:57.501Z,11.77
2022-10-03T19:34:32.705Z,9.25
2022-10-03T19:37:02.761Z,7.68
2022-10-03T19:39:32.364Z,7.00
2022-10-03T19:42:18.492Z,13.05
2022-10-03T19:44:45.242Z,9.57
2022-10-03T19:47:17.613Z,7.28
2022-10-03T19:49:51.240Z,4.90
2022-10-03T19:52:26.120Z,6.33
2022-10-03T19:54:58.801Z,6.90
2022-10-03T19:57:29.487Z,8.07
2022-10-03T20:00:00.007Z,8.13
2022-10-03T20:02:41.629Z,10.93
2022-10-03T20:05:08.506Z,6.93
2022-10-03T20:07:43.625Z,7.07
2022-10-03T20:10:28.843Z,7.85
2022-10-03T20:12:56.616Z,7.35
2022-10-03T20:15:25.465Z,6.07
2022-10-03T20:18:01.299Z,8.57
2022-10-03T20:20:32.481Z,11.68
2022-10-03T20:23:04.312Z,15.93
2022-10-03T20:25:35.463Z,11.23
2022-10-03T20:28:04.860Z,9.48
2022-10-03T20:30:39.330Z,11.07
2022-10-03T20:33:08.006Z,9.73
2022-10-03T20:35:49.403Z,14.40
2022-10-03T20:38:25.737Z,15.15
2022-10-03T20:40:58.809Z,13.27
2022-10-03T20:43:41.545Z,11.50
2022-10-03T20:46:16.751Z,13.30
2022-10-03T20:48:59.387Z,10.63
2022-10-03T20:51:41.249Z,14.70
2022-10-03T20:54:21.944Z,27.55
2022-10-03T20:56:57.098Z,15.83
2022-10-03T20:59:30.800Z,19.50
2022-10-03T21:02:05.442Z,12.85
2022-10-03T21:04:40.084Z,8.38
2022-10-03T21:07:21.644Z,17.13
2022-10-03T21:09:55.942Z,6.87
2022-10-03T21:12:29.107Z,7.20
2022-10-03T21:15:00.452Z,11.02
2022-10-03T21:17:28.701Z,14.65
2022-10-03T21:20:00.777Z,13.95
2022-10-03T21:22:29.390Z,9.10
2022-10-03T21:25:00.243Z,8.90
2022-10-03T21:27:27.343Z,10.75
2022-10-03T21:29:56.988Z,10.50
2022-10-03T21:32:50.154Z,11.30
2022-10-03T21:35:24.055Z,9.10
2022-10-03T21:37:58.776Z,11.63
2022-10-03T21:40:44.810Z,12.45
2022-10-03T21:43:21.544Z,10.43
2022-10-03T21:45:54.665Z,14.18
2022-10-03T21:48:32.502Z,12.77
2022-10-03T21:51:06.911Z,10.55
2022-10-03T21:53:45.104Z,14.95
2022-10-03T21:56:30.918Z,8.65
2022-10-03T21:59:22.920Z,7.28
2022-10-03T22:01:57.041Z,6.70
2022-10-03T22:04:31.063Z,10.32
2022-10-03T22:07:08.848Z,8.45
2022-10-03T22:09:37.865Z,7.35
2022-10-03T22:12:06.923Z,7.95
2022-10-03T22:14:42.458Z,10.43
2022-10-03T22:17:17.178Z,14.75
2022-10-03T22:19:50.329Z,9.55
2022-10-03T22:22:30.482Z,8.98
2022-10-03T22:25:10.491Z,10.82
2022-10-03T22:27:46.511Z,9.20
2022-10-03T22:30:17.169Z,7.47
2022-10-03T22:32:54.412Z,6.78
2022-10-03T22:35:46.637Z,9.93
2022-10-03T22:38:15.865Z,10.32
2022-10-03T22:40:43.216Z,16.20
2022-10-03T22:43:13.077Z,12.45
2022-10-03T22:45:42.781Z,18.95
2022-10-03T22:48:14.553Z,9.80
2022-10-03T22:50:42.782Z,8.15
2022-10-03T22:53:13.867Z,9.20
2022-10-03T22:55:46.804Z,8.05
2022-10-03T22:58:14.660Z,12.02
2022-10-03T23:00:42.999Z,8.00
2022-10-03T23:03:15.292Z,9.48
2022-10-03T23:06:01.585Z,7.10
2022-10-03T23:08:41.863Z,8.60
2022-10-03T23:11:17.072Z,9.43
2022-10-03T23:13:44.983Z,6.82
2022-10-03T23:16:30.366Z,9.48
2022-10-03T23:19:12.419Z,6.70
2022-10-03T23:21:44.691Z,6.53
2022-10-03T23:24:19.645Z,8.80
2022-10-03T23:27:08.124Z,10.18
2022-10-03T23:29:34.752Z,8.70
2022-10-03T23:32:04.478Z,6.67
2022-10-03T23:35:07.748Z,9.88
2022-10-03T23:37:40.797Z,8.68
2022-10-03T23:40:33.981Z,7.03
2022-10-03T23:43:26.444Z,7.18
2022-10-03T23:45:55.483Z,10.67
2022-10-03T23:48:24.900Z,8.13
2022-10-03T23:50:54.169Z,5.30
2022-10-03T23:53:29.754Z,5.38
2022-10-03T23:55:57.168Z,9.50
2022-10-03T23:58:29.133Z,6.80
